Time;durP1;ratioP1;P1;durP2;ratioP2;P2;SDS_P1;SDS_P2;PMS_P1;PMS_P2;Temp;Humidity;BMP_temperature;BMP_pressure;BME280_temperature;BME280_humidity;BME280_pressure;Samples;Min_cycle;Max_cycle;Signal;HPM_P1;HPM_P2
2021/12/22 00:01:30;;;;;;;119.97;46.15;;;;;;;;;;5070921;28;20035;-71
2021/12/22 00:03:56;;;;;;;116.88;45.95;;;;;;;;;;5055074;28;20029;-68
2021/12/22 00:06:25;;;;;;;103.90;44.30;;;;;;;;;;5053927;28;20036;-68
2021/12/22 00:08:51;;;;;;;88.35;39.55;;;;;;;;;;5054861;28;20056;-68
2021/12/22 00:11:17;;;;;;;82.75;38.83;;;;;;;;;;5054858;28;20029;-68
2021/12/22 00:13:42;;;;;;;91.78;38.90;;;;;;;;;;5054792;28;20040;-68
2021/12/22 00:16:08;;;;;;;97.10;41.40;;;;;;;;;;5053408;28;20453;-68
2021/12/22 00:18:34;;;;;;;97.10;43.17;;;;;;;;;;5053475;28;20033;-72
2021/12/22 00:21:02;;;;;;;90.47;42.13;;;;;;;;;;5054745;28;20028;-71
2021/12/22 00:23:28;;;;;;;93.20;43.63;;;;;;;;;;5052419;28;20048;-71
2021/12/22 00:25:53;;;;;;;99.95;44.90;;;;;;;;;;5053253;28;20048;-71
2021/12/22 00:28:19;;;;;;;96.88;46.03;;;;;;;;;;5054707;28;20561;-72
2021/12/22 00:30:45;;;;;;;95.68;44.88;;;;;;;;;;5052757;28;20051;-71
2021/12/22 00:33:13;;;;;;;103.45;47.38;;;;;;;;;;5054418;28;20048;-72
2021/12/22 00:35:44;;;;;;;100.45;45.72;;;;;;;;;;5054386;28;20073;-72
2021/12/22 00:38:11;;;;;;;96.55;44.65;;;;;;;;;;5054623;28;20036;-72
2021/12/22 00:40:37;;;;;;;98.13;43.58;;;;;;;;;;5054471;28;20116;-72
2021/12/22 00:43:03;;;;;;;95.38;43.33;;;;;;;;;;5053065;28;20166;-72
2021/12/22 00:45:31;;;;;;;98.65;46.35;;;;;;;;;;5052976;28;20491;-73
2021/12/22 00:48:05;;;;;;;94.57;41.45;;;;;;;;;;5069693;28;20049;-72
2021/12/22 00:50:30;;;;;;;86.88;39.35;;;;;;;;;;5054243;28;20091;-72
2021/12/22 00:52:56;;;;;;;78.95;39.00;;;;;;;;;;5054151;28;20037;-67
2021/12/22 00:55:22;;;;;;;73.90;37.15;;;;;;;;;;5052697;28;20522;-68
2021/12/22 00:57:48;;;;;;;78.05;39.28;;;;;;;;;;5054012;28;20403;-68
2021/12/22 01:00:15;;;;;;;79.07;37.97;;;;;;;;;;5052717;28;20091;-68
2021/12/22 01:02:40;;;;;;;78.75;37.95;;;;;;;;;;5054077;28;20020;-68
2021/12/22 01:05:07;;;;;;;74.55;36.65;;;;;;;;;;5053736;28;20068;-68
2021/12/22 01:07:32;;;;;;;75.65;36.45;;;;;;;;;;5053223;28;20037;-68
2021/12/22 01:09:58;;;;;;;76.55;36.38;;;;;;;;;;5053764;28;20060;-67
2021/12/22 01:12:23;;;;;;;84.70;38.60;;;;;;;;;;5053675;28;20021;-66
2021/12/22 01:14:50;;;;;;;78.03;38.78;;;;;;;;;;5052460;28;20357;-66
2021/12/22 01:17:16;;;;;;;71.10;35.40;;;;;;;;;;5053757;28;20110;-67
2021/12/22 01:24:59;;;;;;;79.78;36.38;;;;;;;;;;5053863;28;20037;-69
2021/12/22 01:27:27;;;;;;;89.28;39.47;;;;;;;;;;5053770;28;20615;-69
2021/12/22 01:29:52;;;;;;;108.25;43.25;;;;;;;;;;5053036;28;20509;-70
2021/12/22 01:32:18;;;;;;;89.03;39.45;;;;;;;;;;5052508;28;20125;-69
2021/12/22 01:34:44;;;;;;;69.00;33.60;;;;;;;;;;5051936;28;20087;-69
2021/12/22 01:37:09;;;;;;;61.90;32.50;;;;;;;;;;5053517;28;20029;-68
2021/12/22 01:39:35;;;;;;;68.47;31.83;;;;;;;;;;5052304;28;20029;-68
2021/12/22 01:42:01;;;;;;;74.93;34.15;;;;;;;;;;5053166;28;20037;-69
2021/12/22 01:44:31;;;;;;;70.53;34.03;;;;;;;;;;5068725;28;20029;-68
2021/12/22 01:49:50;;;;;;;88.18;38.58;;;;;;;;;;5052432;28;20037;-69
2021/12/22 01:52:19;;;;;;;71.75;35.15;;;;;;;;;;5053318;28;20041;-72
2021/12/22 01:54:50;;;;;;;72.77;34.43;;;;;;;;;;5052062;28;20025;-71
2021/12/22 01:57:17;;;;;;;74.90;36.40;;;;;;;;;;5053391;28;20066;-72
2021/12/22 01:59:44;;;;;;;77.10;38.40;;;;;;;;;;5053206;28;20480;-72
2021/12/22 02:02:13;;;;;;;81.90;40.17;;;;;;;;;;5052087;28;20037;-72
2021/12/22 02:04:41;;;;;;;89.80;41.38;;;;;;;;;;5053317;28;20033;-72
2021/12/22 02:07:07;;;;;;;87.75;40.67;;;;;;;;;;5051651;28;20048;-71
2021/12/22 02:12:02;;;;;;;85.45;40.70;;;;;;;;;;5051873;28;20112;-72
2021/12/22 02:14:27;;;;;;;76.50;38.65;;;;;;;;;;5052233;28;20035;-72
2021/12/22 02:16:53;;;;;;;82.72;38.50;;;;;;;;;;5052861;28;20041;-72
2021/12/22 02:19:19;;;;;;;83.40;38.78;;;;;;;;;;5051721;28;20033;-71
2021/12/22 02:21:51;;;;;;;80.78;39.63;;;;;;;;;;5052946;28;20025;-71
2021/12/22 02:24:17;;;;;;;87.35;42.08;;;;;;;;;;5052810;28;20037;-71
2021/12/22 02:27:03;;;;;;;88.43;42.25;;;;;;;;;;5052740;28;20033;-71
2021/12/22 02:29:38;;;;;;;88.18;42.50;;;;;;;;;;5052651;28;20124;-71
2021/12/22 02:32:30;;;;;;;97.20;45.78;;;;;;;;;;5052902;28;20041;-71
2021/12/22 02:34:51;;;;;;;97.93;45.05;;;;;;;;;;5052755;28;20064;-70
2021/12/22 02:37:26;;;;;;;95.00;45.42;;;;;;;;;;5051826;28;20084;-71
2021/12/22 02:40:00;;;;;;;91.03;45.40;;;;;;;;;;5052942;28;20037;-72
2021/12/22 02:42:36;;;;;;;101.15;46.75;;;;;;;;;;5053042;28;20071;-73
2021/12/22 02:45:32;;;;;;;97.57;45.55;;;;;;;;;;5052757;28;20044;-72
2021/12/22 02:48:01;;;;;;;98.63;46.88;;;;;;;;;;5054081;28;20048;-73
2021/12/22 02:50:26;;;;;;;100.30;46.38;;;;;;;;;;5056742;28;20196;-73
2021/12/22 02:53:05;;;;;;;98.85;46.50;;;;;;;;;;5056742;28;20091;-73
2021/12/22 02:55:44;;;;;;;98.13;46.60;;;;;;;;;;5056083;28;20398;-71
2021/12/22 03:04:11;;;;;;;101.75;45.95;;;;;;;;;;5054995;28;20461;-72
2021/12/22 03:09:38;;;;;;;101.03;47.17;;;;;;;;;;5056113;28;20045;-73
2021/12/22 03:12:06;;;;;;;95.13;46.42;;;;;;;;;;5055888;28;20080;-69
2021/12/22 03:14:32;;;;;;;105.60;48.28;;;;;;;;;;5056004;28;20039;-69
2021/12/22 03:16:57;;;;;;;97.40;47.40;;;;;;;;;;5054964;28;20168;-72
2021/12/22 03:19:29;;;;;;;98.60;46.63;;;;;;;;;;5054686;28;20368;-71
2021/12/22 03:22:03;;;;;;;99.65;46.22;;;;;;;;;;5055885;28;20048;-72
2021/12/22 03:24:32;;;;;;;98.88;45.78;;;;;;;;;;5055763;28;20548;-72
2021/12/22 03:27:03;;;;;;;102.18;46.30;;;;;;;;;;5055735;28;20029;-72
2021/12/22 03:29:29;;;;;;;94.93;47.22;;;;;;;;;;5055537;28;20049;-69
2021/12/22 03:31:55;;;;;;;100.50;48.40;;;;;;;;;;5054542;28;20578;-68
2021/12/22 03:34:20;;;;;;;94.00;46.25;;;;;;;;;;5055556;28;20128;-68
2021/12/22 03:36:46;;;;;;;93.50;46.83;;;;;;;;;;5055561;28;20083;-69
2021/12/22 03:39:12;;;;;;;87.72;42.97;;;;;;;;;;5054177;28;20033;-69
2021/12/22 03:41:39;;;;;;;91.03;42.33;;;;;;;;;;5055523;28;20185;-68
2021/12/22 03:44:05;;;;;;;84.78;40.33;;;;;;;;;;5055405;28;20033;-69
2021/12/22 03:46:31;;;;;;;84.28;41.17;;;;;;;;;;5053945;28;20029;-69
2021/12/22 03:48:58;;;;;;;78.05;39.85;;;;;;;;;;5054213;28;20049;-69
2021/12/22 03:51:24;;;;;;;82.28;37.97;;;;;;;;;;5054180;28;20033;-68
2021/12/22 03:53:50;;;;;;;74.85;37.20;;;;;;;;;;5055139;28;20128;-70
2021/12/22 03:56:15;;;;;;;73.38;36.70;;;;;;;;;;5054001;28;20610;-72
2021/12/22 03:58:41;;;;;;;70.53;36.00;;;;;;;;;;5070451;28;20044;-73
2021/12/22 04:01:06;;;;;;;75.65;36.78;;;;;;;;;;5055348;28;20025;-72
2021/12/22 04:03:34;;;;;;;74.20;36.28;;;;;;;;;;5055698;28;20055;-72
2021/12/22 04:06:00;;;;;;;66.75;35.45;;;;;;;;;;5054010;28;20029;-72
2021/12/22 04:08:26;;;;;;;73.13;34.97;;;;;;;;;;5055225;28;20029;-72
2021/12/22 04:10:51;;;;;;;64.88;33.95;;;;;;;;;;5054969;28;20401;-73
2021/12/22 04:13:18;;;;;;;68.80;33.38;;;;;;;;;;5055243;28;20090;-72
2021/12/22 04:15:44;;;;;;;58.85;31.15;;;;;;;;;;5053530;28;20376;-72
2021/12/22 04:18:10;;;;;;;56.95;30.13;;;;;;;;;;5053679;28;20033;-72
2021/12/22 04:20:36;;;;;;;54.65;27.85;;;;;;;;;;5055272;28;20124;-72
2021/12/22 04:23:03;;;;;;;53.53;28.80;;;;;;;;;;5054772;28;20490;-70
2021/12/22 04:25:28;;;;;;;57.20;28.45;;;;;;;;;;5054073;28;20123;-68
2021/12/22 04:27:55;;;;;;;51.00;26.98;;;;;;;;;;5054796;28;20071;-68
2021/12/22 04:30:21;;;;;;;48.53;25.63;;;;;;;;;;5053762;28;20403;-70
2021/12/22 04:32:47;;;;;;;46.60;24.20;;;;;;;;;;5053540;28;20395;-70
2021/12/22 04:35:13;;;;;;;45.30;24.33;;;;;;;;;;5052998;28;20033;-70
2021/12/22 04:37:39;;;;;;;39.72;22.60;;;;;;;;;;5054771;28;20033;-70
2021/12/22 04:40:05;;;;;;;42.67;22.17;;;;;;;;;;5054360;28;20021;-70
2021/12/22 04:42:34;;;;;;;40.40;22.70;;;;;;;;;;5053162;28;20452;-68
2021/12/22 04:45:03;;;;;;;41.63;22.30;;;;;;;;;;5053858;28;20040;-68
2021/12/22 04:47:33;;;;;;;37.40;20.88;;;;;;;;;;5054415;28;20037;-72
2021/12/22 04:50:00;;;;;;;35.47;20.73;;;;;;;;;;5052770;28;20051;-72
2021/12/22 04:52:28;;;;;;;33.70;20.70;;;;;;;;;;5054395;28;20128;-71
2021/12/22 04:55:04;;;;;;;34.17;19.70;;;;;;;;;;5073456;28;20035;-73
2021/12/22 04:57:31;;;;;;;32.33;19.35;;;;;;;;;;5069594;28;20382;-71
2021/12/22 04:59:56;;;;;;;32.65;19.33;;;;;;;;;;5073440;28;20025;-72
2021/12/22 05:02:22;;;;;;;30.30;17.08;;;;;;;;;;5073230;28;20116;-71
2021/12/22 05:04:47;;;;;;;28.83;17.58;;;;;;;;;;5073192;28;20027;-71
2021/12/22 05:07:13;;;;;;;24.35;15.35;;;;;;;;;;5071877;28;20450;-71
2021/12/22 05:09:38;;;;;;;21.50;15.07;;;;;;;;;;5073602;28;20040;-71
2021/12/22 05:12:04;;;;;;;28.45;15.90;;;;;;;;;;5073895;28;20040;-70
2021/12/22 05:14:29;;;;;;;23.90;15.13;;;;;;;;;;5073778;28;20036;-71
2021/12/22 05:17:00;;;;;;;23.65;15.43;;;;;;;;;;5073529;28;20059;-71
2021/12/22 05:19:26;;;;;;;25.80;15.85;;;;;;;;;;5073717;28;20047;-71
2021/12/22 05:21:51;;;;;;;24.60;15.48;;;;;;;;;;5055359;28;20028;-71
2021/12/22 05:24:18;;;;;;;22.58;14.35;;;;;;;;;;5073669;28;20032;-71
2021/12/22 05:26:43;;;;;;;22.30;14.45;;;;;;;;;;5073693;28;20032;-71
2021/12/22 05:29:09;;;;;;;24.92;15.73;;;;;;;;;;5072224;28;20043;-71
2021/12/22 05:31:35;;;;;;;20.92;14.75;;;;;;;;;;5073244;28;20056;-71
2021/12/22 05:34:01;;;;;;;20.95;13.57;;;;;;;;;;5073377;28;20090;-71
2021/12/22 05:36:26;;;;;;;21.40;13.93;;;;;;;;;;5071957;28;20036;-71
2021/12/22 05:38:58;;;;;;;23.27;15.18;;;;;;;;;;5073211;28;20033;-71
2021/12/22 05:41:24;;;;;;;21.23;13.70;;;;;;;;;;5071353;28;20399;-71
2021/12/22 05:43:49;;;;;;;18.58;13.40;;;;;;;;;;5073540;28;20040;-71
2021/12/22 05:46:15;;;;;;;20.13;13.57;;;;;;;;;;5073167;28;20040;-71
2021/12/22 05:48:40;;;;;;;22.40;13.70;;;;;;;;;;5073171;28;20107;-72
2021/12/22 05:51:07;;;;;;;22.08;14.05;;;;;;;;;;5073293;28;20043;-72
2021/12/22 05:53:33;;;;;;;22.38;13.90;;;;;;;;;;5072168;28;20028;-72
2021/12/22 05:55:59;;;;;;;21.27;13.93;;;;;;;;;;5071927;28;20041;-71
2021/12/22 05:58:24;;;;;;;22.17;13.90;;;;;;;;;;5073151;28;20029;-71
2021/12/22 06:00:50;;;;;;;22.13;14.32;;;;;;;;;;5073218;28;20032;-70
2021/12/22 06:03:15;;;;;;;24.52;15.70;;;;;;;;;;5073160;28;20025;-70
2021/12/22 06:05:41;;;;;;;21.17;15.25;;;;;;;;;;5073192;28;20043;-70
2021/12/22 06:08:07;;;;;;;22.00;14.40;;;;;;;;;;5073103;28;20490;-70
2021/12/22 06:10:34;;;;;;;24.58;15.82;;;;;;;;;;5073111;28;20033;-72
2021/12/22 06:13:07;;;;;;;27.38;15.45;;;;;;;;;;5073043;28;20471;-72
2021/12/22 06:15:33;;;;;;;23.05;15.18;;;;;;;;;;5071676;28;20047;-71
2021/12/22 06:17:59;;;;;;;22.65;14.93;;;;;;;;;;5071738;28;20050;-71
2021/12/22 06:20:26;;;;;;;21.45;14.52;;;;;;;;;;5072827;28;20501;-70
2021/12/22 06:22:51;;;;;;;22.70;14.60;;;;;;;;;;5075153;28;20082;-71
2021/12/22 06:25:17;;;;;;;21.25;13.90;;;;;;;;;;5076916;28;20040;-71
2021/12/22 06:27:43;;;;;;;22.08;15.00;;;;;;;;;;5077062;28;20036;-71
2021/12/22 06:30:08;;;;;;;21.35;14.65;;;;;;;;;;5074955;28;20048;-70
2021/12/22 06:32:34;;;;;;;19.90;14.07;;;;;;;;;;5076951;28;20052;-70
2021/12/22 06:34:59;;;;;;;21.48;13.40;;;;;;;;;;5075424;28;20029;-70
2021/12/22 06:37:25;;;;;;;20.98;13.60;;;;;;;;;;5077109;28;20060;-70
2021/12/22 06:39:50;;;;;;;18.95;13.45;;;;;;;;;;5076604;28;20049;-70
2021/12/22 06:42:16;;;;;;;20.17;13.65;;;;;;;;;;5076525;28;20021;-70
2021/12/22 06:44:42;;;;;;;26.48;16.08;;;;;;;;;;5076616;28;20037;-70
2021/12/22 06:47:10;;;;;;;50.55;23.33;;;;;;;;;;5076627;28;20025;-70
2021/12/22 06:49:36;;;;;;;28.63;16.60;;;;;;;;;;5076542;28;20082;-71
2021/12/22 06:52:01;;;;;;;35.05;17.90;;;;;;;;;;5076395;28;20068;-70
2021/12/22 06:54:27;;;;;;;28.85;16.55;;;;;;;;;;5076148;28;20036;-70
2021/12/22 06:56:52;;;;;;;23.75;16.42;;;;;;;;;;5076049;28;20099;-70
2021/12/22 06:59:17;;;;;;;22.38;14.68;;;;;;;;;;5074861;28;20099;-70
2021/12/22 07:01:43;;;;;;;26.65;16.00;;;;;;;;;;5076118;28;20027;-70
2021/12/22 07:04:08;;;;;;;23.88;15.30;;;;;;;;;;5076091;28;20040;-71
2021/12/22 07:06:34;;;;;;;55.38;33.20;;;;;;;;;;5076142;28;20059;-71
2021/12/22 07:08:59;;;;;;;42.95;25.95;;;;;;;;;;5076073;28;20047;-71
2021/12/22 07:11:25;;;;;;;51.17;25.67;;;;;;;;;;5075953;28;20032;-70
2021/12/22 07:13:53;;;;;;;70.55;38.78;;;;;;;;;;5075859;28;20554;-70
2021/12/22 07:16:18;;;;;;;57.42;27.48;;;;;;;;;;5075882;28;20051;-70
2021/12/22 07:18:44;;;;;;;36.60;18.70;;;;;;;;;;5075965;28;20024;-70
2021/12/22 07:21:10;;;;;;;32.13;15.05;;;;;;;;;;5075713;28;20387;-70
2021/12/22 07:23:36;;;;;;;30.33;15.25;;;;;;;;;;5074397;28;20044;-70
2021/12/22 07:26:01;;;;;;;30.25;15.70;;;;;;;;;;5075752;28;20036;-70
2021/12/22 07:28:27;;;;;;;26.38;13.63;;;;;;;;;;5075769;28;20028;-70
2021/12/22 07:30:52;;;;;;;22.95;12.27;;;;;;;;;;5073725;28;20205;-70
2021/12/22 07:33:18;;;;;;;22.20;14.48;;;;;;;;;;5073848;28;20052;-70
2021/12/22 07:35:56;;;;;;;23.60;14.15;;;;;;;;;;5075432;28;20166;-71
2021/12/22 07:38:27;;;;;;;28.58;16.33;;;;;;;;;;5074252;28;20039;-71
2021/12/22 07:40:54;;;;;;;54.70;24.70;;;;;;;;;;5075516;28;20040;-71
2021/12/22 07:43:19;;;;;;;57.63;28.27;;;;;;;;;;5075473;28;20048;-70
2021/12/22 07:45:45;;;;;;;63.13;31.17;;;;;;;;;;5075317;28;20032;-71
2021/12/22 07:48:10;;;;;;;69.57;33.15;;;;;;;;;;5075311;28;20056;-71
2021/12/22 07:50:36;;;;;;;65.05;30.35;;;;;;;;;;5073913;28;20055;-71
2021/12/22 07:53:02;;;;;;;46.88;22.33;;;;;;;;;;5073976;28;20490;-71
2021/12/22 07:55:27;;;;;;;53.13;26.00;;;;;;;;;;5075273;28;20041;-71
2021/12/22 07:57:53;;;;;;;53.85;26.40;;;;;;;;;;5074654;28;20035;-71
2021/12/22 08:00:18;;;;;;;44.97;23.73;;;;;;;;;;5075196;28;20041;-71
2021/12/22 08:02:44;;;;;;;40.00;20.35;;;;;;;;;;5075058;28;20029;-71
2021/12/22 08:05:09;;;;;;;40.05;20.38;;;;;;;;;;5075300;28;20047;-71
2021/12/22 08:07:35;;;;;;;25.52;16.67;;;;;;;;;;5073570;28;20016;-71
2021/12/22 08:10:03;;;;;;;35.97;18.92;;;;;;;;;;5074919;28;20066;-71
2021/12/22 08:12:28;;;;;;;101.32;55.10;;;;;;;;;;5074909;28;20142;-71
2021/12/22 08:14:53;;;;;;;39.22;25.38;;;;;;;;;;5074933;28;20064;-71
2021/12/22 08:17:20;;;;;;;143.15;92.03;;;;;;;;;;5074776;28;20029;-71
2021/12/22 08:19:46;;;;;;;27.00;19.10;;;;;;;;;;5074770;28;20036;-71
2021/12/22 08:22:11;;;;;;;25.30;16.13;;;;;;;;;;5074433;28;20094;-71
2021/12/22 08:24:37;;;;;;;51.00;27.30;;;;;;;;;;5074662;28;20070;-71
2021/12/22 08:27:03;;;;;;;96.63;47.35;;;;;;;;;;5074501;28;20033;-71
2021/12/22 08:29:28;;;;;;;458.35;195.63;;;;;;;;;;5073127;28;20140;-71
2021/12/22 08:31:53;;;;;;;717.35;327.08;;;;;;;;;;5074339;28;20037;-71
2021/12/22 08:34:26;;;;;;;237.38;89.57;;;;;;;;;;5074303;28;20469;-71
2021/12/22 08:39:35;;;;;;;24.33;14.00;;;;;;;;;;5074279;28;20044;-71
2021/12/22 08:42:01;;;;;;;70.65;29.92;;;;;;;;;;5074133;28;20399;-71
2021/12/22 08:44:26;;;;;;;65.10;30.35;;;;;;;;;;5073318;28;20483;-71
2021/12/22 08:46:52;;;;;;;26.05;14.95;;;;;;;;;;5074265;28;20060;-71
2021/12/22 08:49:18;;;;;;;20.70;13.93;;;;;;;;;;5074199;28;20043;-71
2021/12/22 08:51:44;;;;;;;24.05;14.05;;;;;;;;;;5072711;28;20033;-71
2021/12/22 08:54:10;;;;;;;21.98;14.43;;;;;;;;;;5073913;28;20041;-71
2021/12/22 08:56:36;;;;;;;20.88;13.30;;;;;;;;;;5073906;28;20029;-71
2021/12/22 08:59:02;;;;;;;19.20;13.90;;;;;;;;;;5073820;28;20036;-71
2021/12/22 09:01:30;;;;;;;20.95;13.40;;;;;;;;;;5072618;28;20028;-71
2021/12/22 09:03:55;;;;;;;23.63;14.02;;;;;;;;;;5073831;28;20127;-71
2021/12/22 09:06:21;;;;;;;20.00;13.50;;;;;;;;;;5073869;28;20439;-71
2021/12/22 09:08:46;;;;;;;18.95;13.75;;;;;;;;;;5072525;28;20045;-71
2021/12/22 09:11:12;;;;;;;21.58;13.40;;;;;;;;;;5073694;28;20029;-71
2021/12/22 09:13:38;;;;;;;23.05;14.15;;;;;;;;;;5073792;28;20156;-71
2021/12/22 09:16:04;;;;;;;35.92;26.30;;;;;;;;;;5073511;28;20029;-72
2021/12/22 09:18:29;;;;;;;56.90;42.28;;;;;;;;;;5071977;28;20037;-71
2021/12/22 09:20:55;;;;;;;21.38;14.77;;;;;;;;;;5072414;28;20024;-71
2021/12/22 09:23:20;;;;;;;20.42;12.93;;;;;;;;;;5073560;28;20123;-71
2021/12/22 09:25:46;;;;;;;23.05;15.00;;;;;;;;;;5073399;28;20107;-72
2021/12/22 09:28:13;;;;;;;23.23;14.55;;;;;;;;;;5073433;28;20032;-71
2021/12/22 09:30:39;;;;;;;19.52;12.93;;;;;;;;;;5073138;28;20066;-71
2021/12/22 09:33:05;;;;;;;25.58;14.95;;;;;;;;;;5073496;28;20041;-71
2021/12/22 09:35:31;;;;;;;21.67;13.10;;;;;;;;;;5073396;28;20024;-71
2021/12/22 09:37:56;;;;;;;20.02;12.18;;;;;;;;;;5073404;28;20032;-71
2021/12/22 09:40:22;;;;;;;21.17;15.15;;;;;;;;;;5073384;28;20376;-72
2021/12/22 09:42:47;;;;;;;19.60;13.73;;;;;;;;;;5073369;28;20028;-72
2021/12/22 09:45:12;;;;;;;17.55;11.30;;;;;;;;;;5073304;28;20446;-71
2021/12/22 09:47:58;;;;;;;17.45;11.05;;;;;;;;;;5071964;28;20051;-71
2021/12/22 09:50:38;;;;;;;19.50;11.73;;;;;;;;;;5071906;28;20036;-71
2021/12/22 09:53:03;;;;;;;17.05;10.00;;;;;;;;;;5073229;28;20043;-73
2021/12/22 09:55:31;;;;;;;17.65;10.70;;;;;;;;;;5072708;28;20028;-72
2021/12/22 09:57:57;;;;;;;17.33;11.07;;;;;;;;;;5073063;28;20037;-72
2021/12/22 10:00:22;;;;;;;15.20;8.68;;;;;;;;;;5071730;28;20031;-72
2021/12/22 10:02:47;;;;;;;13.63;7.72;;;;;;;;;;5072943;28;20040;-71
2021/12/22 10:05:13;;;;;;;9.88;7.45;;;;;;;;;;5071716;28;20060;-71
2021/12/22 10:07:41;;;;;;;9.10;5.65;;;;;;;;;;5073134;28;20029;-71
2021/12/22 10:10:08;;;;;;;8.80;5.90;;;;;;;;;;5072017;28;20063;-71
2021/12/22 10:12:35;;;;;;;9.45;6.03;;;;;;;;;;5072462;28;20056;-71
2021/12/22 10:15:02;;;;;;;12.52;7.78;;;;;;;;;;5072871;28;20044;-71
2021/12/22 10:17:29;;;;;;;9.85;6.78;;;;;;;;;;5072850;28;20044;-71
2021/12/22 10:20:02;;;;;;;11.25;7.18;;;;;;;;;;5072876;28;20074;-71
2021/12/22 10:22:41;;;;;;;13.30;8.20;;;;;;;;;;5072908;28;20033;-71
2021/12/22 10:25:29;;;;;;;11.25;6.57;;;;;;;;;;5072988;28;20037;-71
2021/12/22 10:28:04;;;;;;;9.80;6.57;;;;;;;;;;5071731;28;20536;-71
2021/12/22 10:30:29;;;;;;;9.15;6.10;;;;;;;;;;5072162;28;20043;-72
2021/12/22 10:33:09;;;;;;;9.98;6.15;;;;;;;;;;5072784;28;20394;-72
2021/12/22 10:35:36;;;;;;;13.63;8.10;;;;;;;;;;5071465;28;20037;-73
2021/12/22 10:38:02;;;;;;;7.72;5.22;;;;;;;;;;5072646;28;20032;-71
2021/12/22 10:40:28;;;;;;;8.68;5.63;;;;;;;;;;5072604;28;20390;-72
2021/12/22 10:42:55;;;;;;;11.23;7.07;;;;;;;;;;5071431;28;20025;-72
2021/12/22 10:45:22;;;;;;;16.25;8.15;;;;;;;;;;5072704;28;20041;-71
2021/12/22 10:50:31;;;;;;;15.38;8.15;;;;;;;;;;5072674;28;20036;-71
2021/12/22 10:52:57;;;;;;;14.85;8.10;;;;;;;;;;5072774;28;20108;-71
2021/12/22 10:55:23;;;;;;;15.88;8.60;;;;;;;;;;5072604;28;20498;-71
2021/12/22 10:57:48;;;;;;;10.15;6.68;;;;;;;;;;5071294;28;20039;-71
2021/12/22 11:00:19;;;;;;;11.52;6.72;;;;;;;;;;5072505;28;20049;-71
2021/12/22 11:02:50;;;;;;;;;;;;;;;;;;5055131;28;20087;-71
2021/12/22 11:05:17;;;;;;;9.27;5.70;;;;;;;;;;5071461;28;19909;-71
2021/12/22 11:07:43;;;;;;;8.73;5.93;;;;;;;;;;5054782;28;20116;-71
2021/12/22 11:10:24;;;;;;;7.93;4.93;;;;;;;;;;5074867;28;20131;-72
2021/12/22 11:12:58;;;;;;;473.30;194.30;;;;;;;;;;5075923;28;20047;-72
2021/12/22 11:15:25;;;;;;;188.32;65.65;;;;;;;;;;5075886;28;20035;-72
2021/12/22 11:17:50;;;;;;;245.40;93.43;;;;;;;;;;5075799;28;20024;-71
2021/12/22 11:20:15;;;;;;;74.10;27.75;;;;;;;;;;5075911;28;20520;-73
2021/12/22 11:22:51;;;;;;;20.60;9.43;;;;;;;;;;5075878;28;20070;-71
2021/12/22 11:25:16;;;;;;;10.05;6.30;;;;;;;;;;5075897;28;20444;-71
2021/12/22 11:27:42;;;;;;;11.40;6.63;;;;;;;;;;5075703;28;20024;-71
2021/12/22 11:30:08;;;;;;;8.85;5.97;;;;;;;;;;5075199;28;20498;-71
2021/12/22 11:32:33;;;;;;;9.35;5.90;;;;;;;;;;5075796;28;20456;-71
2021/12/22 11:35:00;;;;;;;10.05;6.07;;;;;;;;;;5057566;28;20028;-72
2021/12/22 11:37:26;;;;;;;9.68;5.70;;;;;;;;;;5075422;28;20031;-72
2021/12/22 11:39:52;;;;;;;8.25;5.20;;;;;;;;;;5075402;28;20085;-72
2021/12/22 11:42:20;;;;;;;11.57;5.72;;;;;;;;;;5075468;28;20036;-71
2021/12/22 11:44:48;;;;;;;9.07;5.78;;;;;;;;;;5073999;28;20032;-71
2021/12/22 11:47:15;;;;;;;12.38;7.50;;;;;;;;;;5075407;28;20033;-71
2021/12/22 11:50:00;;;;;;;15.52;8.25;;;;;;;;;;5075383;28;20135;-71
2021/12/22 11:52:32;;;;;;;19.98;10.55;;;;;;;;;;5075282;28;20044;-71
2021/12/22 11:55:15;;;;;;;18.25;10.05;;;;;;;;;;5073967;28;20043;-71
2021/12/22 11:57:41;;;;;;;15.05;7.93;;;;;;;;;;5075246;28;20040;-71
2021/12/22 12:00:22;;;;;;;21.17;9.38;;;;;;;;;;5073653;28;20027;-71
2021/12/22 12:02:47;;;;;;;;;;;;;;;;;;5075511;28;20044;-71
2021/12/22 12:05:15;;;;;;;23.13;10.30;;;;;;;;;;5073903;28;19904;-71
2021/12/22 12:07:49;;;;;;;20.92;9.48;;;;;;;;;;5075009;28;20350;-71
2021/12/22 12:10:32;;;;;;;19.08;9.15;;;;;;;;;;5074977;28;20147;-72
2021/12/22 12:13:04;;;;;;;11.05;6.80;;;;;;;;;;5074977;28;20040;-71
2021/12/22 12:15:54;;;;;;;11.13;6.07;;;;;;;;;;5073724;28;20600;-71
2021/12/22 12:21:45;;;;;;;13.50;6.75;;;;;;;;;;5074607;28;20032;-71
2021/12/22 12:24:30;;;;;;;13.75;7.68;;;;;;;;;;5069022;28;20032;-71
2021/12/22 12:26:55;;;;;;;12.15;7.60;;;;;;;;;;5056731;28;20379;-71
2021/12/22 12:29:59;;;;;;;13.85;7.45;;;;;;;;;;5074508;28;20085;-71
2021/12/22 12:32:40;;;;;;;13.10;7.15;;;;;;;;;;5015501;28;20049;-71
2021/12/22 12:35:05;;;;;;;;;;;;;;;;;;5032941;28;20559;-71
2021/12/22 12:38:00;;;;;;;12.27;6.17;;;;;;;;;;5055456;28;20011;-71
2021/12/22 12:40:44;;;;;;;11.82;6.70;;;;;;;;;;5037286;28;20291;-71
2021/12/22 12:43:09;;;;;;;8.82;4.90;;;;;;;;;;5074435;28;20040;-71
2021/12/22 12:45:47;;;;;;;12.07;5.90;;;;;;;;;;5074197;28;20020;-71
2021/12/22 12:48:27;;;;;;;9.63;5.63;;;;;;;;;;5056324;28;20044;-71
2021/12/22 12:51:24;;;;;;;20.52;8.57;;;;;;;;;;5074175;28;20491;-71
2021/12/22 12:53:51;;;;;;;6.78;4.95;;;;;;;;;;5065559;28;20087;-71
2021/12/22 12:56:19;;;;;;;9.63;5.25;;;;;;;;;;5074352;28;20128;-71
2021/12/22 12:58:50;;;;;;;15.02;6.75;;;;;;;;;;5073977;28;20037;-71
2021/12/22 13:01:15;;;;;;;20.92;11.43;;;;;;;;;;5072818;28;20116;-71
2021/12/22 13:03:47;;;;;;;21.00;9.65;;;;;;;;;;5072576;28;20052;-71
2021/12/22 13:06:13;;;;;;;25.30;9.75;;;;;;;;;;5073759;28;20402;-71
2021/12/22 13:08:38;;;;;;;14.77;6.63;;;;;;;;;;5073602;28;20039;-71
2021/12/22 13:11:11;;;;;;;9.90;5.28;;;;;;;;;;5055824;28;20559;-71
2021/12/22 13:15:45;;;;;;;6.10;4.25;;;;;;;;;;5055991;28;20075;-71
2021/12/22 13:16:22;;;;;;;17.67;8.07;;;;;;;;;;5073813;28;20094;-71
2021/12/22 13:18:48;;;;;;;19.40;11.23;;;;;;;;;;5072509;28;20033;-71
2021/12/22 13:21:13;;;;;;;17.35;8.07;;;;;;;;;;5073746;28;20036;-71
2021/12/22 13:23:38;;;;;;;18.85;10.07;;;;;;;;;;5072317;28;20028;-71
2021/12/22 13:26:04;;;;;;;18.95;11.80;;;;;;;;;;5072349;28;20033;-71
2021/12/22 13:28:31;;;;;;;16.48;9.02;;;;;;;;;;5073661;28;20500;-72
2021/12/22 13:31:00;;;;;;;17.05;7.57;;;;;;;;;;5071333;28;20399;-72
2021/12/22 13:33:25;;;;;;;19.45;8.77;;;;;;;;;;5073374;28;20037;-72
2021/12/22 13:35:52;;;;;;;17.48;11.02;;;;;;;;;;5071972;28;20074;-72
2021/12/22 13:38:28;;;;;;;28.13;11.70;;;;;;;;;;5072111;28;20452;-71
2021/12/22 13:40:53;;;;;;;19.50;9.02;;;;;;;;;;5072005;28;20041;-71
2021/12/22 13:43:21;;;;;;;16.80;7.68;;;;;;;;;;5073238;28;20032;-71
2021/12/22 13:45:46;;;;;;;13.93;7.63;;;;;;;;;;5073156;28;20063;-71
2021/12/22 13:48:16;;;;;;;10.88;6.05;;;;;;;;;;5073260;28;20063;-71
2021/12/22 13:50:42;;;;;;;11.60;7.60;;;;;;;;;;5072649;28;20043;-71
2021/12/22 13:53:08;;;;;;;19.20;12.15;;;;;;;;;;5073216;28;20029;-71
2021/12/22 13:55:33;;;;;;;22.52;13.95;;;;;;;;;;5073133;28;20098;-73
2021/12/22 13:57:58;;;;;;;20.80;13.40;;;;;;;;;;5073021;28;20020;-71
2021/12/22 14:00:24;;;;;;;30.85;16.60;;;;;;;;;;5073013;28;20032;-71
2021/12/22 14:02:49;;;;;;;101.47;53.60;;;;;;;;;;5054968;28;20047;-71
2021/12/22 14:05:16;;;;;;;75.15;33.05;;;;;;;;;;5073146;28;20482;-72
2021/12/22 14:07:42;;;;;;;69.55;31.30;;;;;;;;;;5072995;28;20025;-71
2021/12/22 14:10:10;;;;;;;127.88;62.38;;;;;;;;;;5073084;28;20028;-72
2021/12/22 14:12:36;;;;;;;113.70;56.85;;;;;;;;;;5071799;28;20024;-72
2021/12/22 14:15:02;;;;;;;115.93;58.00;;;;;;;;;;5073128;28;20154;-72
2021/12/22 14:17:32;;;;;;;92.07;46.42;;;;;;;;;;5072819;28;20036;-71
2021/12/22 14:20:02;;;;;;;87.85;44.35;;;;;;;;;;5072953;28;20068;-71
2021/12/22 14:22:35;;;;;;;71.50;35.13;;;;;;;;;;5072897;28;20037;-71
2021/12/22 14:25:06;;;;;;;70.70;34.85;;;;;;;;;;5072700;28;20362;-71
2021/12/22 14:27:31;;;;;;;;;;;;;;;;;;5073302;28;20078;-71
2021/12/22 14:29:58;;;;;;;42.80;23.42;;;;;;;;;;5072526;28;19905;-71
2021/12/22 14:32:26;;;;;;;63.08;28.48;;;;;;;;;;5071493;28;20076;-70
2021/12/22 14:34:59;;;;;;;81.50;35.22;;;;;;;;;;5072873;28;20127;-71
2021/12/22 14:37:29;;;;;;;80.32;35.90;;;;;;;;;;5054647;28;20049;-71
2021/12/22 14:39:55;;;;;;;76.57;33.92;;;;;;;;;;5072666;28;20040;-71
2021/12/22 14:42:25;;;;;;;66.88;29.95;;;;;;;;;;5072736;28;20102;-71
2021/12/22 14:44:51;;;;;;;69.47;30.48;;;;;;;;;;5076507;28;20115;-71
2021/12/22 14:47:18;;;;;;;136.02;65.63;;;;;;;;;;5076811;28;20447;-72
2021/12/22 14:49:44;;;;;;;155.85;75.70;;;;;;;;;;5075224;28;20407;-72
2021/12/22 14:52:09;;;;;;;147.15;68.22;;;;;;;;;;5075101;28;20032;-72
2021/12/22 14:54:34;;;;;;;147.30;67.55;;;;;;;;;;5076146;28;20116;-72